Charlevoix, Michigan
Current Conditions -  °F | °C
As of 12:15 AM on Monday 20 Oct 2014 (Local Time) from KCVX Reporting Station
Overcast Overcast  
Wind Chill:   Ceiling: 4100
Heat Index:   Visibility: 10mi
Dew Point:   Wind: 9mph
Humidity: 91%   Direction: 200°SSW
Pressure: 29.81"   Gusts: 16mph
Location:  45.32°N, 85.26°W
Report Text: KCVX 200415Z AUTO 20008G14KT 170V230 10SM OVC041 09/07 A2981 RMK AO2 T00880074
Loading
Personal Weather Stations






























Interactive Weather Map
Tropical Storm Tracking
New forecast layout! Learn more

10-Day Weather Forecast

Advertisements
Track Severe Weather on mobile